createdAt,value
2022-12-15T00:05:08.305Z,7.40
2022-12-15T00:11:28.537Z,7.27
2022-12-15T00:17:49.353Z,7.24
2022-12-15T00:24:09.626Z,7.22
2022-12-15T00:30:30.792Z,7.18
2022-12-15T00:36:51.500Z,7.22
2022-12-15T00:42:54.153Z,7.05
2022-12-15T00:48:56.145Z,7.10
2022-12-15T00:55:18.158Z,7.20
2022-12-15T01:01:38.920Z,7.21
2022-12-15T01:07:59.830Z,7.14
2022-12-15T01:14:20.276Z,7.16
2022-12-15T01:20:22.286Z,7.12
2022-12-15T01:26:24.314Z,7.26
2022-12-15T01:32:27.986Z,7.34
2022-12-15T01:38:31.102Z,7.24
2022-12-15T01:44:33.209Z,7.35
2022-12-15T01:50:42.768Z,7.43
2022-12-15T01:56:48.621Z,7.25
2022-12-15T02:02:51.376Z,7.14
2022-12-15T02:08:55.632Z,7.35
2022-12-15T02:15:10.023Z,7.26
2022-12-15T02:21:20.875Z,7.17
2022-12-15T02:27:37.745Z,6.98
2022-12-15T02:33:54.026Z,7.06
2022-12-15T02:39:56.708Z,7.09
2022-12-15T02:46:27.905Z,7.25
2022-12-15T02:52:38.908Z,7.37
2022-12-15T02:58:43.866Z,7.53
2022-12-15T03:04:45.941Z,7.51
2022-12-15T03:10:51.194Z,7.56
2022-12-15T03:16:54.578Z,7.56
2022-12-15T03:22:57.417Z,7.72
2022-12-15T03:28:59.361Z,7.60
2022-12-15T03:35:01.397Z,7.67
2022-12-15T03:41:07.091Z,7.72
2022-12-15T03:47:14.114Z,7.77
2022-12-15T03:53:16.356Z,7.94
2022-12-15T03:59:18.326Z,7.91
2022-12-15T04:05:22.971Z,8.02
2022-12-15T04:11:24.956Z,7.92
2022-12-15T04:17:26.970Z,8.00
2022-12-15T04:23:31.090Z,7.98
2022-12-15T04:29:51.531Z,8.06
2022-12-15T04:36:12.081Z,8.03
2022-12-15T04:42:34.651Z,7.78
2022-12-15T04:48:57.187Z,7.80
2022-12-15T04:55:17.718Z,7.88
2022-12-15T05:08:31.437Z,7.72
2022-12-15T05:14:52.144Z,7.66
2022-12-15T05:21:13.907Z,7.53
2022-12-15T05:27:36.051Z,7.59
2022-12-15T05:33:39.094Z,7.58
2022-12-15T05:39:41.059Z,7.70
2022-12-15T05:45:43.145Z,7.78
2022-12-15T05:51:48.228Z,7.94
2022-12-15T05:57:54.697Z,7.98
2022-12-15T06:03:59.185Z,8.09
2022-12-15T06:10:01.150Z,8.01
2022-12-15T06:16:15.366Z,8.23
2022-12-15T06:22:18.400Z,8.32
2022-12-15T06:28:24.068Z,8.28
2022-12-15T06:34:27.257Z,8.47
2022-12-15T06:40:32.168Z,8.54
2022-12-15T06:46:38.788Z,8.35
2022-12-15T06:52:42.377Z,8.32
2022-12-15T06:58:47.819Z,8.39
2022-12-15T07:04:53.392Z,8.18
2022-12-15T07:10:55.625Z,8.17
2022-12-15T07:16:57.756Z,8.23
2022-12-15T07:23:11.493Z,8.33
2022-12-15T07:29:21.131Z,8.57
2022-12-15T07:35:26.331Z,8.65
2022-12-15T07:41:30.285Z,8.58
2022-12-15T07:47:34.010Z,8.89
2022-12-15T07:53:37.387Z,9.38
2022-12-15T07:59:39.381Z,9.56
2022-12-15T08:05:41.462Z,9.16
2022-12-15T08:11:45.222Z,9.20
2022-12-15T08:17:48.549Z,9.43
2022-12-15T08:23:50.889Z,9.72
2022-12-15T08:29:53.658Z,9.39
2022-12-15T08:36:07.422Z,9.74
2022-12-15T08:42:09.465Z,10.14
2022-12-15T08:48:11.462Z,9.82
2022-12-15T08:54:13.916Z,9.44
2022-12-15T09:00:16.274Z,9.38
2022-12-15T09:06:35.250Z,9.16
2022-12-15T09:12:41.944Z,9.62
2022-12-15T09:18:48.539Z,10.14
2022-12-15T09:24:50.885Z,9.95
2022-12-15T09:30:53.334Z,9.75
2022-12-15T09:36:56.866Z,9.98
2022-12-15T09:43:25.734Z,9.94
2022-12-15T09:49:31.087Z,9.97
2022-12-15T09:55:39.851Z,10.10
2022-12-15T10:02:10.307Z,10.36
2022-12-15T10:08:15.258Z,10.22
2022-12-15T10:14:50.818Z,10.43
2022-12-15T10:20:57.124Z,10.42
2022-12-15T10:27:17.448Z,10.41
2022-12-15T10:33:24.484Z,10.51
2022-12-15T10:39:45.971Z,10.56
2022-12-15T10:46:04.952Z,10.33
2022-12-15T10:52:27.537Z,10.15
2022-12-15T10:58:31.486Z,9.83
2022-12-15T11:04:36.688Z,9.97
2022-12-15T11:11:11.934Z,9.83
2022-12-15T11:17:19.640Z,9.35
2022-12-15T11:23:26.866Z,9.36
2022-12-15T11:29:53.128Z,9.37
2022-12-15T11:36:10.940Z,9.39
2022-12-15T11:42:44.023Z,9.47
2022-12-15T11:49:15.403Z,9.30
2022-12-15T11:55:27.646Z,9.44
2022-12-15T12:01:55.349Z,9.46
2022-12-15T12:08:17.311Z,9.80
2022-12-15T12:14:34.871Z,10.03
2022-12-15T12:20:45.880Z,10.00
2022-12-15T12:26:57.258Z,9.75
2022-12-15T12:33:02.821Z,9.76
2022-12-15T12:39:05.401Z,9.64
2022-12-15T12:45:12.582Z,9.44
2022-12-15T12:51:27.624Z,9.02
2022-12-15T12:57:41.936Z,8.90
2022-12-15T13:03:44.081Z,8.66
2022-12-15T13:10:12.928Z,8.75
2022-12-15T13:16:23.517Z,8.74
2022-12-15T13:22:42.684Z,8.52
2022-12-15T13:28:50.584Z,8.72
2022-12-15T13:34:52.986Z,8.53
2022-12-15T13:40:55.525Z,8.56
2022-12-15T13:47:07.161Z,9.02
2022-12-15T13:53:19.425Z,9.05
2022-12-15T13:59:28.025Z,9.19
2022-12-15T14:05:32.266Z,8.94
2022-12-15T14:18:01.611Z,9.02
2022-12-15T14:24:37.998Z,8.93
2022-12-15T14:30:41.518Z,8.57
2022-12-15T14:36:44.512Z,8.79
2022-12-15T14:42:47.578Z,8.97
2022-12-15T14:49:03.767Z,8.88
2022-12-15T14:55:21.256Z,8.79
2022-12-15T15:01:30.071Z,8.66
2022-12-15T15:07:33.967Z,8.51
2022-12-15T15:13:40.227Z,8.23
2022-12-15T15:20:05.922Z,8.85
2022-12-15T15:26:10.836Z,8.50
2022-12-15T15:32:23.696Z,8.09
2022-12-15T15:38:33.590Z,8.21
2022-12-15T15:44:36.940Z,8.13
2022-12-15T15:50:39.010Z,7.91
2022-12-15T15:56:41.734Z,8.24
2022-12-15T16:02:44.257Z,8.24
2022-12-15T16:08:51.242Z,7.80
2022-12-15T16:14:54.820Z,8.08
2022-12-15T16:20:58.232Z,8.31
2022-12-15T16:27:00.366Z,8.10
2022-12-15T16:33:05.094Z,7.93
2022-12-15T16:39:24.987Z,7.66
2022-12-15T16:45:29.658Z,8.18
2022-12-15T16:51:40.554Z,8.18
2022-12-15T16:57:43.395Z,7.89
2022-12-15T17:03:45.759Z,7.72
2022-12-15T17:09:49.827Z,7.65
2022-12-15T17:15:53.303Z,7.58
2022-12-15T17:21:57.063Z,8.14
2022-12-15T17:28:01.449Z,8.19
2022-12-15T17:34:33.520Z,8.07
2022-12-15T17:40:37.143Z,7.71
2022-12-15T17:46:40.433Z,7.80
2022-12-15T17:52:48.107Z,7.64
2022-12-15T17:58:50.363Z,7.97
2022-12-15T18:04:53.989Z,8.29
2022-12-15T18:10:58.142Z,8.29
2022-12-15T18:17:00.170Z,8.35
2022-12-15T18:23:12.405Z,8.49
2022-12-15T18:29:18.274Z,8.37
2022-12-15T18:35:34.521Z,8.15
2022-12-15T18:41:36.503Z,7.97
2022-12-15T18:47:38.558Z,7.94
2022-12-15T18:53:41.274Z,7.49
2022-12-15T18:59:45.624Z,7.54
2022-12-15T19:05:49.094Z,7.54
2022-12-15T19:12:10.132Z,7.25
2022-12-15T19:18:35.679Z,7.02
2022-12-15T19:24:55.855Z,7.24
2022-12-15T19:30:58.216Z,7.49
2022-12-15T19:37:02.716Z,7.68
2022-12-15T19:43:05.549Z,7.81
2022-12-15T19:49:09.635Z,7.77
2022-12-15T19:55:16.512Z,7.59
2022-12-15T20:01:21.346Z,7.23
2022-12-15T20:07:33.449Z,7.04
2022-12-15T20:13:36.467Z,6.89
2022-12-15T20:19:39.098Z,6.71
2022-12-15T20:25:42.092Z,6.82
2022-12-15T20:31:44.522Z,7.17
2022-12-15T20:37:47.779Z,7.36
2022-12-15T20:43:54.291Z,7.51
2022-12-15T20:49:57.703Z,7.55
2022-12-15T20:55:59.686Z,7.19
2022-12-15T21:02:01.876Z,7.20
2022-12-15T21:08:15.799Z,7.33
2022-12-15T21:14:23.710Z,7.23
2022-12-15T21:20:26.105Z,7.25
2022-12-15T21:26:29.239Z,7.44
2022-12-15T21:32:31.216Z,7.42
2022-12-15T21:38:40.330Z,7.34
2022-12-15T21:44:43.074Z,7.42
2022-12-15T21:50:50.337Z,7.37
2022-12-15T21:56:54.129Z,7.28
2022-12-15T22:02:57.217Z,7.12
2022-12-15T22:08:59.161Z,7.33
2022-12-15T22:15:02.325Z,7.47
2022-12-15T22:21:05.214Z,7.46
2022-12-15T22:27:19.880Z,7.61
2022-12-15T22:33:24.242Z,7.55
2022-12-15T22:39:26.647Z,7.54
2022-12-15T22:45:28.657Z,7.60
2022-12-15T22:51:31.048Z,7.52
2022-12-15T22:57:35.031Z,7.49
2022-12-15T23:03:38.766Z,7.72
2022-12-15T23:09:40.698Z,7.65
2022-12-15T23:16:02.782Z,7.69
2022-12-15T23:22:05.173Z,7.43
2022-12-15T23:28:07.401Z,7.55
2022-12-15T23:34:10.786Z,7.56
2022-12-15T23:40:13.561Z,7.32
2022-12-15T23:46:15.541Z,7.44
2022-12-15T23:52:18.595Z,7.47
2022-12-15T23:58:21.521Z,7.51
